Time;durP1;ratioP1;P1;durP2;ratioP2;P2;SDS_P1;SDS_P2;PMS_P1;PMS_P2;Temp;Humidity;BMP_temperature;BMP_pressure;BME280_temperature;BME280_humidity;BME280_pressure;Samples;Min_cycle;Max_cycle;Signal;HPM_P1;HPM_P2
2023/06/12 00:01:54;;;;;;;;;;;;;;;;;;5063843;28;4688;-64
2023/06/12 00:04:21;;;;;;;;;;;;;;;;;;5061667;28;3176;-65
2023/06/12 00:06:47;;;;;;;;;;;;;;;;;;5060414;28;4576;-61
2023/06/12 00:09:13;;;;;;;;;;;;;;;;;;5062307;28;5069;-62
2023/06/12 00:11:40;;;;;;;;;;;;;;;;;;5055150;28;4778;-62
2023/06/12 00:14:05;;;;;;;;;;;;;;;;;;5060614;28;4686;-62
2023/06/12 00:16:30;;;;;;;;;;;;;;;;;;5059875;28;3461;-62
2023/06/12 00:18:56;;;;;;;;;;;;;;;;;;5060215;28;4693;-63
2023/06/12 00:21:23;;;;;;;;;;;;;;;;;;5063346;28;4528;-62
2023/06/12 00:23:48;;;;;;;;;;;;;;;;;;5062984;28;4505;-61
2023/06/12 00:26:13;;;;;;;;;;;;;;;;;;5060018;28;4657;-61
2023/06/12 00:28:39;;;;;;;;;;;;;;;;;;5064713;28;3204;-61
2023/06/12 00:31:04;;;;;;;;;;;;;;;;;;5063370;28;4584;-62
2023/06/12 00:33:30;;;;;;;;;;;;;;;;;;5068096;28;4461;-62
2023/06/12 00:35:55;;;;;;;;;;;;;;;;;;5064374;28;4744;-63
2023/06/12 00:38:20;;;;;;;;;;;;;;;;;;5062600;28;5140;-63
2023/06/12 00:40:46;;;;;;;;;;;;;;;;;;5065483;28;3996;-62
2023/06/12 00:43:11;;;;;;;;;;;;;;;;;;5057450;28;5078;-62
2023/06/12 00:45:36;;;;;;;;;;;;;;;;;;5063061;28;4711;-63
2023/06/12 00:48:02;;;;;;;;;;;;;;;;;;5060989;28;4572;-62
2023/06/12 00:50:27;;;;;;;;;;;;;;;;;;5045866;28;5200;-64
2023/06/12 00:52:53;;;;;;;;;;;;;;;;;;5062309;28;4711;-61
2023/06/12 00:55:18;;;;;;;;;;;;;;;;;;5064553;28;3264;-61
2023/06/12 00:57:44;;;;;;;;;;;;;;;;;;5063717;28;5048;-62
2023/06/12 01:00:11;;;;;;;;;;;;;;;;;;5065327;28;5114;-63
2023/06/12 01:02:42;;;;;;;;;;;;;;;;;;5061499;28;4866;-61
2023/06/12 01:05:10;;;;;;;;;;;;;;;;;;5063974;28;4639;-62
2023/06/12 01:07:51;;;;;;;;;;;;;;;;;;5062848;28;3310;-61
2023/06/12 01:10:28;;;;;;;;;;;;;;;;;;5063635;28;4995;-60
2023/06/12 01:12:54;;;;;;;;;;;;;;;;;;5060414;28;4424;-63
2023/06/12 01:15:19;;;;;;;;;;;;;;;;;;5066224;28;4770;-61
2023/06/12 01:17:44;;;;;;;;;;;;;;;;;;5040297;28;5139;-63
2023/06/12 01:20:13;;;;;;;;;;;;;;;;;;5067476;28;4633;-63
2023/06/12 01:22:52;;;;;;;;;;;;;;;;;;5068275;28;1181;-61
2023/06/12 01:25:32;;;;;;;;;;;;;;;;;;5068981;28;4982;-61
2023/06/12 01:28:26;;;;;;;;;;;;;;;;;;5065826;28;5872;-63
2023/06/12 01:30:59;;;;;;;;;;;;;;;;;;5048617;28;4892;-62
2023/06/12 01:33:32;;;;;;;;;;;;;;;;;;5064844;28;4994;-62
2023/06/12 01:35:58;;;;;;;;;;;;;;;;;;5065721;28;4636;-61
2023/06/12 01:38:24;;;;;;;;;;;;;;;;;;5064426;28;4498;-62
2023/06/12 01:40:49;;;;;;;;;;;;;;;;;;5066475;28;4671;-62
2023/06/12 01:43:15;;;;;;;;;;;;;;;;;;5065047;28;3217;-62
2023/06/12 01:45:40;;;;;;;;;;;;;;;;;;5064481;28;4397;-61
2023/06/12 01:48:05;;;;;;;;;;;;;;;;;;5048917;28;4927;-64
2023/06/12 01:50:31;;;;;;;;;;;;;;;;;;5066354;28;4511;-63
2023/06/12 01:52:56;;;;;;;;;;;;;;;;;;5066737;28;5968;-63
2023/06/12 01:55:21;;;;;;;;;;;;;;;;;;5068484;28;1358;-66
2023/06/12 01:57:48;;;;;;;;;;;;;;;;;;5064567;28;4950;-60
2023/06/12 02:00:14;;;;;;;;;;;;;;;;;;5067048;28;5095;-61
2023/06/12 02:02:39;;;;;;;;;;;;;;;;;;5066858;28;4679;-62
2023/06/12 02:05:05;;;;;;;;;;;;;;;;;;5065805;28;5111;-62
2023/06/12 02:07:30;;;;;;;;;;;;;;;;;;5067500;28;1668;-62
2023/06/12 02:09:55;;;;;;;;;;;;;;;;;;5074045;28;5387;-63
2023/06/12 02:12:21;;;;;;;;;;;;;;;;;;5061834;28;4509;-62
2023/06/12 02:14:47;;;;;;;;;;;;;;;;;;5063260;28;5249;-62
2023/06/12 02:17:13;;;;;;;;;;;;;;;;;;5068278;28;1918;-61
2023/06/12 02:19:39;;;;;;;;;;;;;;;;;;5062926;28;5034;-62
2023/06/12 02:22:04;;;;;;;;;;;;;;;;;;5067059;28;4457;-62
2023/06/12 02:24:30;;;;;;;;;;;;;;;;;;5065574;28;4520;-62
2023/06/12 02:26:55;;;;;;;;;;;;;;;;;;5065415;28;4667;-63
2023/06/12 02:29:20;;;;;;;;;;;;;;;;;;5068402;28;2034;-63
2023/06/12 02:31:46;;;;;;;;;;;;;;;;;;5064859;28;4928;-64
2023/06/12 02:34:11;;;;;;;;;;;;;;;;;;5065802;28;4438;-62
2023/06/12 02:36:42;;;;;;;;;;;;;;;;;;5064653;28;4486;-61
2023/06/12 02:39:08;;;;;;;;;;;;;;;;;;5064344;28;4954;-61
2023/06/12 02:41:33;;;;;;;;;;;;;;;;;;5063634;28;3207;-62
2023/06/12 02:43:58;;;;;;;;;;;;;;;;;;5063210;28;4929;-61
2023/06/12 02:46:24;;;;;;;;;;;;;;;;;;5064294;28;4647;-61
2023/06/12 02:48:49;;;;;;;;;;;;;;;;;;5065766;28;4472;-62
2023/06/12 02:51:14;;;;;;;;;;;;;;;;;;5066000;28;4626;-61
2023/06/12 02:53:39;;;;;;;;;;;;;;;;;;5065462;28;5674;-62
2023/06/12 02:56:05;;;;;;;;;;;;;;;;;;5061920;28;3306;-64
2023/06/12 02:58:30;;;;;;;;;;;;;;;;;;5062226;28;5084;-62
2023/06/12 03:00:57;;;;;;;;;;;;;;;;;;5065705;28;4603;-64
2023/06/12 03:03:22;;;;;;;;;;;;;;;;;;5065505;28;5732;-63
2023/06/12 03:05:47;;;;;;;;;;;;;;;;;;5065789;28;4464;-62
2023/06/12 03:08:16;;;;;;;;;;;;;;;;;;5065200;28;3255;-62
2023/06/12 03:10:42;;;;;;;;;;;;;;;;;;5062637;28;4430;-62
2023/06/12 03:13:08;;;;;;;;;;;;;;;;;;5059320;28;5052;-62
2023/06/12 03:15:33;;;;;;;;;;;;;;;;;;5062899;28;4694;-61
2023/06/12 03:17:59;;;;;;;;;;;;;;;;;;5060468;28;4811;-64
2023/06/12 03:20:24;;;;;;;;;;;;;;;;;;5091789;28;3438;-63
2023/06/12 03:22:50;;;;;;;;;;;;;;;;;;5062663;28;4973;-62
2023/06/12 03:25:18;;;;;;;;;;;;;;;;;;5061230;28;4620;-63
2023/06/12 03:27:45;;;;;;;;;;;;;;;;;;5060528;28;4698;-61
2023/06/12 03:30:10;;;;;;;;;;;;;;;;;;5065182;28;5184;-61
2023/06/12 03:32:36;;;;;;;;;;;;;;;;;;5059303;28;5120;-62
2023/06/12 03:35:01;;;;;;;;;;;;;;;;;;5063415;28;3304;-62
2023/06/12 03:37:28;;;;;;;;;;;;;;;;;;5047451;28;4638;-62
2023/06/12 03:39:53;;;;;;;;;;;;;;;;;;5063697;28;4653;-61
2023/06/12 03:42:18;;;;;;;;;;;;;;;;;;5060975;28;4569;-63
2023/06/12 03:44:44;;;;;;;;;;;;;;;;;;5058090;28;4543;-64
2023/06/12 03:47:11;;;;;;;;;;;;;;;;;;5064526;28;3342;-62
2023/06/12 03:49:36;;;;;;;;;;;;;;;;;;5058587;28;4648;-63
2023/06/12 03:52:03;;;;;;;;;;;;;;;;;;5059958;28;4554;-64
2023/06/12 03:54:28;;;;;;;;;;;;;;;;;;5061317;28;4790;-66
2023/06/12 03:56:53;;;;;;;;;;;;;;;;;;5062663;28;4647;-62
2023/06/12 03:59:18;;;;;;;;;;;;;;;;;;5072567;28;3308;-61
2023/06/12 04:01:44;;;;;;;;;;;;;;;;;;5059795;28;4993;-62
2023/06/12 04:04:10;;;;;;;;;;;;;;;;;;5061170;28;4994;-63
2023/06/12 04:06:40;;;;;;;;;;;;;;;;;;5066477;28;5077;-62
2023/06/12 04:09:07;;;;;;;;;;;;;;;;;;5065100;28;4678;-64
2023/06/12 04:11:34;;;;;;;;;;;;;;;;;;5064875;28;3405;-63
2023/06/12 04:14:00;;;;;;;;;;;;;;;;;;5065935;28;4759;-62
2023/06/12 04:16:25;;;;;;;;;;;;;;;;;;5063842;28;6124;-61
2023/06/12 04:18:50;;;;;;;;;;;;;;;;;;5064566;28;4999;-62
2023/06/12 04:21:16;;;;;;;;;;;;;;;;;;5064463;28;5539;-64
2023/06/12 04:23:47;;;;;;;;;;;;;;;;;;5062096;28;4623;-63
2023/06/12 04:26:12;;;;;;;;;;;;;;;;;;5066569;28;3618;-62
2023/06/12 04:28:38;;;;;;;;;;;;;;;;;;5065281;28;5212;-62
2023/06/12 04:31:03;;;;;;;;;;;;;;;;;;5064208;28;4713;-62
2023/06/12 04:33:32;;;;;;;;;;;;;;;;;;5063205;28;4745;-63
2023/06/12 04:35:58;;;;;;;;;;;;;;;;;;5064791;28;4648;-63
2023/06/12 04:38:25;;;;;;;;;;;;;;;;;;5065149;28;3412;-61
2023/06/12 04:40:52;;;;;;;;;;;;;;;;;;5063423;28;4391;-62
2023/06/12 04:43:19;;;;;;;;;;;;;;;;;;5060989;28;4482;-64
2023/06/12 04:45:45;;;;;;;;;;;;;;;;;;5064212;28;4651;-64
2023/06/12 04:48:11;;;;;;;;;;;;;;;;;;5062636;28;5032;-62
2023/06/12 04:50:36;;;;;;;;;;;;;;;;;;5060728;28;4973;-62
2023/06/12 04:53:01;;;;;;;;;;;;;;;;;;5056328;28;3423;-60
2023/06/12 04:55:29;;;;;;;;;;;;;;;;;;5062316;28;5065;-61
2023/06/12 04:57:54;;;;;;;;;;;;;;;;;;5066179;28;4722;-59
2023/06/12 05:00:20;;;;;;;;;;;;;;;;;;5063389;28;4998;-65
2023/06/12 05:02:46;;;;;;;;;;;;;;;;;;5062102;28;4512;-60
2023/06/12 05:05:11;;;;;;;;;;;;;;;;;;5068144;28;3578;-59
2023/06/12 05:07:36;;;;;;;;;;;;;;;;;;5063431;28;4490;-60
2023/06/12 05:10:02;;;;;;;;;;;;;;;;;;5061749;28;4558;-61
2023/06/12 05:12:28;;;;;;;;;;;;;;;;;;5057485;28;4697;-63
2023/06/12 05:14:53;;;;;;;;;;;;;;;;;;5061468;28;5058;-60
2023/06/12 05:17:18;;;;;;;;;;;;;;;;;;5061423;28;3198;-63
2023/06/12 05:19:43;;;;;;;;;;;;;;;;;;5063468;28;4939;-63
2023/06/12 05:22:09;;;;;;;;;;;;;;;;;;5060302;28;5291;-61
2023/06/12 05:24:34;;;;;;;;;;;;;;;;;;5062759;28;4654;-61
2023/06/12 05:27:00;;;;;;;;;;;;;;;;;;5061309;28;4698;-62
2023/06/12 05:29:26;;;;;;;;;;;;;;;;;;5062304;28;3437;-60
2023/06/12 05:31:51;;;;;;;;;;;;;;;;;;5057741;28;4652;-61
2023/06/12 05:34:17;;;;;;;;;;;;;;;;;;5056021;28;5095;-61
2023/06/12 05:36:42;;;;;;;;;;;;;;;;;;5059875;28;4606;-59
2023/06/12 05:39:07;;;;;;;;;;;;;;;;;;5058836;28;4511;-61
2023/06/12 05:41:32;;;;;;;;;;;;;;;;;;5057334;28;3413;-64
2023/06/12 05:43:58;;;;;;;;;;;;;;;;;;5062845;28;4403;-60
2023/06/12 05:46:23;;;;;;;;;;;;;;;;;;5059357;28;4982;-60
2023/06/12 05:48:49;;;;;;;;;;;;;;;;;;5062417;28;4494;-59
2023/06/12 05:51:14;;;;;;;;;;;;;;;;;;5057364;28;4681;-59
2023/06/12 05:53:39;;;;;;;;;;;;;;;;;;5056869;28;4740;-58
2023/06/12 05:56:05;;;;;;;;;;;;;;;;;;5053322;28;3477;-57
2023/06/12 05:58:31;;;;;;;;;;;;;;;;;;5057134;28;4626;-56
2023/06/12 06:00:56;;;;;;;;;;;;;;;;;;5062887;28;4512;-56
2023/06/12 06:03:23;;;;;;;;;;;;;;;;;;5061876;28;4616;-55
2023/06/12 06:05:49;;;;;;;;;;;;;;;;;;5060242;28;5002;-57
2023/06/12 06:08:14;;;;;;;;;;;;;;;;;;5062396;28;3212;-57
2023/06/12 06:10:40;;;;;;;;;;;;;;;;;;5065168;28;5032;-55
2023/06/12 06:13:05;;;;;;;;;;;;;;;;;;5056155;28;4494;-58
2023/06/12 06:15:30;;;;;;;;;;;;;;;;;;5069973;28;5077;-56
2023/06/12 06:17:56;;;;;;;;;;;;;;;;;;5059776;28;5094;-56
2023/06/12 06:20:21;;;;;;;;;;;;;;;;;;5061256;28;3215;-58
2023/06/12 06:22:47;;;;;;;;;;;;;;;;;;5059328;28;5111;-58
2023/06/12 06:25:13;;;;;;;;;;;;;;;;;;5064772;28;5031;-54
2023/06/12 06:27:38;;;;;;;;;;;;;;;;;;5064909;28;4436;-56
2023/06/12 06:30:04;;;;;;;;;;;;;;;;;;5058699;28;4700;-56
2023/06/12 06:32:29;;;;;;;;;;;;;;;;;;5060817;28;3283;-57
2023/06/12 06:34:55;;;;;;;;;;;;;;;;;;5059384;28;4913;-57
2023/06/12 06:37:20;;;;;;;;;;;;;;;;;;5060333;28;4510;-56
2023/06/12 06:39:46;;;;;;;;;;;;;;;;;;5060361;28;4692;-55
2023/06/12 06:42:11;;;;;;;;;;;;;;;;;;5059032;28;4677;-57
2023/06/12 06:44:36;;;;;;;;;;;;;;;;;;5062126;28;4700;-59
2023/06/12 06:47:02;;;;;;;;;;;;;;;;;;5065729;28;3290;-58
2023/06/12 06:49:29;;;;;;;;;;;;;;;;;;5055499;28;4466;-57
2023/06/12 06:51:54;;;;;;;;;;;;;;;;;;5052271;28;5009;-58
2023/06/12 06:54:19;;;;;;;;;;;;;;;;;;5057318;28;4581;-56
2023/06/12 06:56:45;;;;;;;;;;;;;;;;;;5063105;28;4680;-55
2023/06/12 06:59:10;;;;;;;;;;;;;;;;;;5069128;28;3223;-55
2023/06/12 07:01:37;;;;;;;;;;;;;;;;;;5060574;28;4566;-56
2023/06/12 07:04:02;;;;;;;;;;;;;;;;;;5058172;28;4723;-54
2023/06/12 07:06:28;;;;;;;;;;;;;;;;;;5039759;28;4595;-54
2023/06/12 07:08:53;;;;;;;;;;;;;;;;;;5064340;28;4759;-53
2023/06/12 07:11:18;;;;;;;;;;;;;;;;;;5064715;28;3118;-54
2023/06/12 07:13:43;;;;;;;;;;;;;;;;;;5062121;28;4967;-54
2023/06/12 07:16:09;;;;;;;;;;;;;;;;;;5061130;28;5085;-55
2023/06/12 07:18:34;;;;;;;;;;;;;;;;;;5061257;28;5254;-54
2023/06/12 07:21:00;;;;;;;;;;;;;;;;;;5058921;28;4499;-55
2023/06/12 07:23:25;;;;;;;;;;;;;;;;;;5055841;28;3394;-54
2023/06/12 07:25:50;;;;;;;;;;;;;;;;;;5062225;28;4570;-57
2023/06/12 07:28:15;;;;;;;;;;;;;;;;;;5061351;28;4999;-51
2023/06/12 07:30:41;;;;;;;;;;;;;;;;;;5060748;28;4511;-55
2023/06/12 07:33:06;;;;;;;;;;;;;;;;;;5063122;28;4445;-56
2023/06/12 07:35:31;;;;;;;;;;;;;;;;;;5060273;28;3327;-54
2023/06/12 07:37:58;;;;;;;;;;;;;;;;;;5063884;28;4627;-55
2023/06/12 07:40:23;;;;;;;;;;;;;;;;;;5062206;28;5108;-55
2023/06/12 07:42:48;;;;;;;;;;;;;;;;;;5059867;28;4543;-54
2023/06/12 07:45:13;;;;;;;;;;;;;;;;;;5055988;28;4654;-56
2023/06/12 07:47:39;;;;;;;;;;;;;;;;;;5058622;28;4956;-55
2023/06/12 07:50:05;;;;;;;;;;;;;;;;;;5061905;28;3499;-56
2023/06/12 07:52:30;;;;;;;;;;;;;;;;;;5088919;28;5110;-54
2023/06/12 07:54:56;;;;;;;;;;;;;;;;;;5060869;28;4503;-55
2023/06/12 07:57:21;;;;;;;;;;;;;;;;;;5060357;28;4660;-56
2023/06/12 07:59:46;;;;;;;;;;;;;;;;;;5058536;28;4606;-54
2023/06/12 08:02:12;;;;;;;;;;;;;;;;;;5061511;28;3451;-53
2023/06/12 08:04:40;;;;;;;;;;;;;;;;;;5063581;28;4468;-54
2023/06/12 08:07:06;;;;;;;;;;;;;;;;;;5063460;28;4461;-55
2023/06/12 08:09:32;;;;;;;;;;;;;;;;;;5059155;28;4495;-58
2023/06/12 08:11:57;;;;;;;;;;;;;;;;;;5055819;28;5007;-56
2023/06/12 08:14:22;;;;;;;;;;;;;;;;;;5059254;28;3376;-56
2023/06/12 08:16:49;;;;;;;;;;;;;;;;;;5063615;28;4553;-57
2023/06/12 08:19:14;;;;;;;;;;;;;;;;;;5061227;28;4644;-56
2023/06/12 08:21:39;;;;;;;;;;;;;;;;;;5063476;28;4605;-57
2023/06/12 08:24:06;;;;;;;;;;;;;;;;;;5062609;28;4463;-56
2023/06/12 08:26:31;;;;;;;;;;;;;;;;;;5065636;28;1084;-55
2023/06/12 08:28:57;;;;;;;;;;;;;;;;;;5062324;28;5146;-56
2023/06/12 08:31:23;;;;;;;;;;;;;;;;;;5060407;28;5108;-56
2023/06/12 08:33:48;;;;;;;;;;;;;;;;;;5061429;28;4650;-53
2023/06/12 08:36:14;;;;;;;;;;;;;;;;;;5054628;28;4677;-55
2023/06/12 08:38:39;;;;;;;;;;;;;;;;;;5064927;28;4431;-56
2023/06/12 08:41:04;;;;;;;;;;;;;;;;;;5064793;28;1125;-56
2023/06/12 08:43:30;;;;;;;;;;;;;;;;;;5062322;28;4451;-57
2023/06/12 08:45:56;;;;;;;;;;;;;;;;;;5065283;28;4446;-55
2023/06/12 08:48:21;;;;;;;;;;;;;;;;;;5065025;28;4982;-56
2023/06/12 08:50:47;;;;;;;;;;;;;;;;;;5062279;28;4521;-58
2023/06/12 08:53:13;;;;;;;;;;;;;;;;;;5065218;28;3352;-56
2023/06/12 08:55:41;;;;;;;;;;;;;;;;;;5068288;28;4539;-55
2023/06/12 08:58:09;;;;;;;;;;;;;;;;;;5068909;28;4639;-55
2023/06/12 09:00:35;;;;;;;;;;;;;;;;;;5062915;28;4484;-56
2023/06/12 09:03:00;;;;;;;;;;;;;;;;;;5065004;28;4506;-55
2023/06/12 09:05:38;;;;;;;;;;;;;;;;;;5065913;28;3314;-55
2023/06/12 09:08:04;;;;;;;;;;;;;;;;;;5062061;28;5617;-56
2023/06/12 09:10:30;;;;;;;;;;;;;;;;;;5066224;28;4710;-55
2023/06/12 09:12:55;;;;;;;;;;;;;;;;;;5062678;28;4495;-58
2023/06/12 09:15:21;;;;;;;;;;;;;;;;;;5068258;28;4478;-55
2023/06/12 09:17:47;;;;;;;;;;;;;;;;;;5067509;28;4683;-56
2023/06/12 09:20:17;;;;;;;;;;;;;;;;;;5068627;28;3031;-56
2023/06/12 09:22:42;;;;;;;;;;;;;;;;;;5063810;28;4530;-56
2023/06/12 09:25:08;;;;;;;;;;;;;;;;;;5068490;28;5177;-55
2023/06/12 09:27:42;;;;;;;;;;;;;;;;;;5068144;28;5070;-57
2023/06/12 09:30:08;;;;;;;;;;;;;;;;;;5066917;28;4429;-56
2023/06/12 09:32:33;;;;;;;;;;;;;;;;;;5067581;28;3939;-55
2023/06/12 09:34:58;;;;;;;;;;;;;;;;;;5066852;28;4614;-55
2023/06/12 09:37:23;;;;;;;;;;;;;;;;;;5067213;28;4436;-55
2023/06/12 09:39:49;;;;;;;;;;;;;;;;;;5066313;28;4492;-55
2023/06/12 09:42:17;;;;;;;;;;;;;;;;;;5063404;28;5015;-57
2023/06/12 09:44:44;;;;;;;;;;;;;;;;;;5066471;28;4445;-55
2023/06/12 09:47:09;;;;;;;;;;;;;;;;;;5067588;28;1640;-57
2023/06/12 09:49:34;;;;;;;;;;;;;;;;;;5068327;28;5165;-56
2023/06/12 09:52:00;;;;;;;;;;;;;;;;;;5061575;28;4821;-56
2023/06/12 09:54:26;;;;;;;;;;;;;;;;;;5063831;28;4598;-56
2023/06/12 09:56:54;;;;;;;;;;;;;;;;;;5065940;28;4833;-57
2023/06/12 09:59:19;;;;;;;;;;;;;;;;;;5054681;28;3211;-55
2023/06/12 10:01:51;;;;;;;;;;;;;;;;;;5067147;28;4929;-57
2023/06/12 10:04:25;;;;;;;;;;;;;;;;;;5065933;28;4446;-57
2023/06/12 10:06:51;;;;;;;;;;;;;;;;;;5064912;28;4526;-54
2023/06/12 10:09:17;;;;;;;;;;;;;;;;;;5064252;28;4514;-55
2023/06/12 10:11:42;;;;;;;;;;;;;;;;;;5063111;28;4605;-56
2023/06/12 10:14:07;;;;;;;;;;;;;;;;;;5059480;28;3621;-62
2023/06/12 10:16:34;;;;;;;;;;;;;;;;;;5059190;28;4518;-60
2023/06/12 10:18:59;;;;;;;;;;;;;;;;;;5062507;28;4538;-59
2023/06/12 10:21:25;;;;;;;;;;;;;;;;;;5060527;28;5036;-62
2023/06/12 10:23:51;;;;;;;;;;;;;;;;;;5060568;28;4665;-61
2023/06/12 10:26:16;;;;;;;;;;;;;;;;;;5063451;28;3336;-61
2023/06/12 10:28:47;;;;;;;;;;;;;;;;;;5062327;28;4677;-61
2023/06/12 10:31:17;;;;;;;;;;;;;;;;;;5065539;28;4713;-63
2023/06/12 10:33:57;;;;;;;;;;;;;;;;;;5051821;28;4863;-64
2023/06/12 10:36:35;;;;;;;;;;;;;;;;;;5063777;27;4494;-63
2023/06/12 10:39:03;;;;;;;;;;;;;;;;;;5072822;28;5032;-63
2023/06/12 10:41:34;;;;;;;;;;;;;;;;;;5084570;28;3260;-62
2023/06/12 10:43:59;;;;;;;;;;;;;;;;;;5059174;28;4989;-64
2023/06/12 10:46:41;;;;;;;;;;;;;;;;;;5060473;28;4555;-61
2023/06/12 10:49:06;;;;;;;;;;;;;;;;;;5058834;28;4851;-62
2023/06/12 10:51:31;;;;;;;;;;;;;;;;;;5058585;28;4548;-61
2023/06/12 10:54:03;;;;;;;;;;;;;;;;;;5066358;28;4600;-66
2023/06/12 10:56:28;;;;;;;;;;;;;;;;;;5064201;28;3219;-62
2023/06/12 10:58:53;;;;;;;;;;;;;;;;;;5062897;28;4960;-62
2023/06/12 11:01:20;;;;;;;;;;;;;;;;;;5064376;28;4492;-65
2023/06/12 11:03:46;;;;;;;;;;;;;;;;;;5063761;28;5194;-63
2023/06/12 11:06:17;;;;;;;;;;;;;;;;;;5058934;28;5049;-63
2023/06/12 11:08:42;;;;;;;;;;;;;;;;;;5061282;28;4523;-62
2023/06/12 11:11:08;;;;;;;;;;;;;;;;;;5062786;28;1130;-60
2023/06/12 11:13:35;;;;;;;;;;;;;;;;;;5062984;28;5143;-60
2023/06/12 11:16:00;;;;;;;;;;;;;;;;;;5065047;28;4477;-63
2023/06/12 11:18:26;;;;;;;;;;;;;;;;;;5065285;28;4699;-64
2023/06/12 11:20:52;;;;;;;;;;;;;;;;;;5060505;28;4480;-63
2023/06/12 11:23:17;;;;;;;;;;;;;;;;;;5046162;28;3330;-62
2023/06/12 11:25:43;;;;;;;;;;;;;;;;;;5066172;28;5011;-60
2023/06/12 11:28:11;;;;;;;;;;;;;;;;;;5063090;28;4524;-64
2023/06/12 11:30:37;;;;;;;;;;;;;;;;;;5049820;28;4616;-62
2023/06/12 11:33:08;;;;;;;;;;;;;;;;;;5060057;28;4585;-62
2023/06/12 11:35:54;;;;;;;;;;;;;;;;;;5063238;28;3221;-61
2023/06/12 11:38:20;;;;;;;;;;;;;;;;;;5061366;28;4782;-61
2023/06/12 11:40:46;;;;;;;;;;;;;;;;;;5066505;28;4548;-62
2023/06/12 11:43:11;;;;;;;;;;;;;;;;;;5061767;28;4477;-62
2023/06/12 11:45:41;;;;;;;;;;;;;;;;;;5066450;28;4592;-64
2023/06/12 11:48:14;;;;;;;;;;;;;;;;;;5063420;28;5260;-59
2023/06/12 11:50:39;;;;;;;;;;;;;;;;;;5064568;28;4525;-59
2023/06/12 11:53:05;;;;;;;;;;;;;;;;;;5063550;28;3340;-59
2023/06/12 11:55:32;;;;;;;;;;;;;;;;;;5047327;28;4787;-59
2023/06/12 11:58:00;;;;;;;;;;;;;;;;;;5062530;28;4538;-59
2023/06/12 12:00:26;;;;;;;;;;;;;;;;;;5064780;28;4577;-60
2023/06/12 12:02:53;;;;;;;;;;;;;;;;;;5065825;28;5051;-58
2023/06/12 12:05:20;;;;;;;;;;;;;;;;;;5063132;28;3259;-57
2023/06/12 12:07:49;;;;;;;;;;;;;;;;;;5065262;28;4410;-57
2023/06/12 12:10:14;;;;;;;;;;;;;;;;;;5063451;28;4712;-58
2023/06/12 12:12:40;;;;;;;;;;;;;;;;;;5060233;28;4477;-58
2023/06/12 12:15:06;;;;;;;;;;;;;;;;;;5065248;28;4536;-56
2023/06/12 12:17:32;;;;;;;;;;;;;;;;;;5045919;28;1965;-57
2023/06/12 12:20:01;;;;;;;;;;;;;;;;;;5063221;28;5181;-57
2023/06/12 12:22:26;;;;;;;;;;;;;;;;;;5064456;28;4618;-57
2023/06/12 12:24:53;;;;;;;;;;;;;;;;;;5065192;28;4853;-58
2023/06/12 12:27:19;;;;;;;;;;;;;;;;;;5069383;28;4542;-57
2023/06/12 12:29:46;;;;;;;;;;;;;;;;;;5066789;28;5069;-58
2023/06/12 12:32:11;;;;;;;;;;;;;;;;;;5067401;28;3343;-57
2023/06/12 12:34:37;;;;;;;;;;;;;;;;;;5066872;28;4692;-59
2023/06/12 12:37:05;;;;;;;;;;;;;;;;;;5066517;28;5899;-57
2023/06/12 12:39:30;;;;;;;;;;;;;;;;;;5059507;28;4593;-58
2023/06/12 12:41:57;;;;;;;;;;;;;;;;;;5065701;28;4718;-56
2023/06/12 12:44:22;;;;;;;;;;;;;;;;;;5098783;28;2383;-57
2023/06/12 12:46:47;;;;;;;;;;;;;;;;;;5069216;28;4428;-59
2023/06/12 12:49:13;;;;;;;;;;;;;;;;;;5061134;28;4499;-60
2023/06/12 12:51:39;;;;;;;;;;;;;;;;;;5062133;28;4566;-58
2023/06/12 12:54:05;;;;;;;;;;;;;;;;;;5067458;28;4505;-57
2023/06/12 12:56:30;;;;;;;;;;;;;;;;;;5066801;28;3106;-55
2023/06/12 12:58:56;;;;;;;;;;;;;;;;;;5066684;28;4567;-60
2023/06/12 13:01:21;;;;;;;;;;;;;;;;;;5066711;28;4823;-58
2023/06/12 13:03:47;;;;;;;;;;;;;;;;;;5066406;28;4625;-56
2023/06/12 13:06:12;;;;;;;;;;;;;;;;;;5064433;28;4645;-56
2023/06/12 13:08:38;;;;;;;;;;;;;;;;;;5066339;28;4477;-57
2023/06/12 13:11:03;;;;;;;;;;;;;;;;;;5065653;28;3246;-55
2023/06/12 13:13:28;;;;;;;;;;;;;;;;;;5064377;28;5227;-56
2023/06/12 13:15:54;;;;;;;;;;;;;;;;;;5068228;28;4647;-57
2023/06/12 13:18:19;;;;;;;;;;;;;;;;;;5066188;28;4676;-56
2023/06/12 13:20:45;;;;;;;;;;;;;;;;;;5061489;28;4469;-58
2023/06/12 13:23:11;;;;;;;;;;;;;;;;;;5066194;28;1191;-56
2023/06/12 13:25:38;;;;;;;;;;;;;;;;;;5068122;28;4408;-56
2023/06/12 13:28:05;;;;;;;;;;;;;;;;;;5067250;28;4647;-55
2023/06/12 13:30:30;;;;;;;;;;;;;;;;;;5065740;28;5067;-57
2023/06/12 13:32:56;;;;;;;;;;;;;;;;;;5068632;28;6353;-58
2023/06/12 13:35:21;;;;;;;;;;;;;;;;;;5067134;28;2390;-57
2023/06/12 13:37:46;;;;;;;;;;;;;;;;;;5066891;28;4942;-57
2023/06/12 13:40:13;;;;;;;;;;;;;;;;;;5066702;28;4598;-56
2023/06/12 13:42:38;;;;;;;;;;;;;;;;;;5063914;28;4486;-57
2023/06/12 13:45:05;;;;;;;;;;;;;;;;;;5067593;28;5170;-57
2023/06/12 13:47:30;;;;;;;;;;;;;;;;;;5068027;28;1143;-56
2023/06/12 13:49:56;;;;;;;;;;;;;;;;;;5065452;28;4465;-57
2023/06/12 13:52:21;;;;;;;;;;;;;;;;;;5067153;28;4586;-57
2023/06/12 13:54:46;;;;;;;;;;;;;;;;;;5066807;28;4496;-58
2023/06/12 13:57:12;;;;;;;;;;;;;;;;;;5066136;28;4657;-57
2023/06/12 13:59:37;;;;;;;;;;;;;;;;;;5067364;28;5162;-56
2023/06/12 14:02:03;;;;;;;;;;;;;;;;;;5065153;28;3273;-63
2023/06/12 14:04:28;;;;;;;;;;;;;;;;;;5061873;28;4453;-54
2023/06/12 14:06:54;;;;;;;;;;;;;;;;;;5055238;28;4664;-54
2023/06/12 14:09:19;;;;;;;;;;;;;;;;;;5067166;28;4441;-56
2023/06/12 14:11:45;;;;;;;;;;;;;;;;;;5063087;28;4679;-55
2023/06/12 14:14:11;;;;;;;;;;;;;;;;;;5063871;28;1072;-55
2023/06/12 14:16:36;;;;;;;;;;;;;;;;;;5063960;28;4920;-56
2023/06/12 14:19:01;;;;;;;;;;;;;;;;;;5055135;28;4660;-57
2023/06/12 14:21:27;;;;;;;;;;;;;;;;;;5065258;28;4675;-57
2023/06/12 14:23:52;;;;;;;;;;;;;;;;;;5063787;28;5025;-56
2023/06/12 14:26:17;;;;;;;;;;;;;;;;;;5066610;28;3401;-54
2023/06/12 14:28:43;;;;;;;;;;;;;;;;;;5064947;28;4988;-55
2023/06/12 14:31:08;;;;;;;;;;;;;;;;;;5068888;28;4521;-59
2023/06/12 14:33:33;;;;;;;;;;;;;;;;;;5061712;28;4808;-55
2023/06/12 14:35:59;;;;;;;;;;;;;;;;;;5066483;28;5895;-55
2023/06/12 14:38:24;;;;;;;;;;;;;;;;;;5066559;28;3286;-57
2023/06/12 14:40:49;;;;;;;;;;;;;;;;;;5065320;28;4431;-59
2023/06/12 14:43:17;;;;;;;;;;;;;;;;;;5064084;28;5126;-57
2023/06/12 14:45:42;;;;;;;;;;;;;;;;;;5065971;28;5054;-58
2023/06/12 14:48:08;;;;;;;;;;;;;;;;;;5066593;28;4507;-56
2023/06/12 14:50:33;;;;;;;;;;;;;;;;;;5066303;28;3281;-57
2023/06/12 14:52:58;;;;;;;;;;;;;;;;;;5064108;28;4582;-58
2023/06/12 14:55:23;;;;;;;;;;;;;;;;;;5067351;28;4442;-58
2023/06/12 14:57:49;;;;;;;;;;;;;;;;;;5058848;28;4551;-57
2023/06/12 15:00:14;;;;;;;;;;;;;;;;;;5056565;28;4606;-57
2023/06/12 15:02:39;;;;;;;;;;;;;;;;;;5059335;28;4512;-59
2023/06/12 15:05:05;;;;;;;;;;;;;;;;;;5058938;28;3350;-56
2023/06/12 15:07:30;;;;;;;;;;;;;;;;;;5064806;28;4503;-58
2023/06/12 15:09:55;;;;;;;;;;;;;;;;;;5062534;28;5100;-55
2023/06/12 15:12:20;;;;;;;;;;;;;;;;;;5055977;28;4948;-56
2023/06/12 15:14:46;;;;;;;;;;;;;;;;;;5060457;28;4585;-60
2023/06/12 15:17:11;;;;;;;;;;;;;;;;;;5062890;28;3484;-58
2023/06/12 15:19:36;;;;;;;;;;;;;;;;;;5063843;28;4841;-58
2023/06/12 15:22:03;;;;;;;;;;;;;;;;;;5044128;28;4737;-57
2023/06/12 15:24:28;;;;;;;;;;;;;;;;;;5064198;28;4849;-56
2023/06/12 15:26:54;;;;;;;;;;;;;;;;;;5060764;28;5084;-58
2023/06/12 15:29:19;;;;;;;;;;;;;;;;;;5066733;28;1520;-58
2023/06/12 15:31:46;;;;;;;;;;;;;;;;;;5062284;28;4575;-60
2023/06/12 15:34:11;;;;;;;;;;;;;;;;;;5045140;28;5185;-59
2023/06/12 15:36:37;;;;;;;;;;;;;;;;;;5062568;28;4476;-60
2023/06/12 15:39:02;;;;;;;;;;;;;;;;;;5062909;28;4637;-57
2023/06/12 15:41:28;;;;;;;;;;;;;;;;;;5058965;28;3385;-62
2023/06/12 15:43:53;;;;;;;;;;;;;;;;;;5058533;28;5070;-57
2023/06/12 15:46:18;;;;;;;;;;;;;;;;;;5067001;28;4501;-57
2023/06/12 15:48:44;;;;;;;;;;;;;;;;;;5060091;28;4988;-54
2023/06/12 15:51:12;;;;;;;;;;;;;;;;;;5066211;28;5148;-56
2023/06/12 15:53:37;;;;;;;;;;;;;;;;;;5065932;28;4545;-57
2023/06/12 15:56:03;;;;;;;;;;;;;;;;;;5061991;28;3168;-57
2023/06/12 15:58:29;;;;;;;;;;;;;;;;;;5065640;28;4511;-56
2023/06/12 16:00:55;;;;;;;;;;;;;;;;;;5071439;28;4502;-53
2023/06/12 16:03:20;;;;;;;;;;;;;;;;;;5063211;28;5005;-58
2023/06/12 16:05:45;;;;;;;;;;;;;;;;;;5067450;28;4744;-57
2023/06/12 16:08:11;;;;;;;;;;;;;;;;;;5063029;28;3169;-54
2023/06/12 16:10:36;;;;;;;;;;;;;;;;;;5064241;28;4622;-55
2023/06/12 16:13:02;;;;;;;;;;;;;;;;;;5058785;28;5805;-56
2023/06/12 16:15:31;;;;;;;;;;;;;;;;;;5065355;28;4562;-61
2023/06/12 16:17:56;;;;;;;;;;;;;;;;;;5060642;28;4567;-70
2023/06/12 16:20:22;;;;;;;;;;;;;;;;;;5067848;28;3255;-65
2023/06/12 16:22:47;;;;;;;;;;;;;;;;;;5067040;28;4483;-57
2023/06/12 16:25:13;;;;;;;;;;;;;;;;;;5059959;28;5076;-68
2023/06/12 16:27:38;;;;;;;;;;;;;;;;;;5063813;28;5016;-69
2023/06/12 16:30:04;;;;;;;;;;;;;;;;;;5068421;28;4528;-69
2023/06/12 16:32:29;;;;;;;;;;;;;;;;;;5065859;28;3344;-67
2023/06/12 16:34:54;;;;;;;;;;;;;;;;;;5066766;28;4597;-67
2023/06/12 16:37:20;;;;;;;;;;;;;;;;;;5067245;28;5033;-58
2023/06/12 16:39:51;;;;;;;;;;;;;;;;;;5062646;28;4643;-58
2023/06/12 16:42:21;;;;;;;;;;;;;;;;;;5053433;28;4499;-61
2023/06/12 16:44:47;;;;;;;;;;;;;;;;;;5062691;28;4504;-60
2023/06/12 16:47:12;;;;;;;;;;;;;;;;;;5067649;28;3152;-59
2023/06/12 16:49:38;;;;;;;;;;;;;;;;;;5057560;28;4688;-59
2023/06/12 16:52:03;;;;;;;;;;;;;;;;;;5060848;28;5229;-60
2023/06/12 16:54:28;;;;;;;;;;;;;;;;;;5061735;28;4562;-60
2023/06/12 16:56:54;;;;;;;;;;;;;;;;;;5064824;28;4735;-61